Terre Haute International Hulman Field
KHUF : now visible

Airfield :











YOU CAN JOIN US ON...

 
LOGIN :

Register | Disclaimer

   EN    FR    IT 

 









Legend :    VFR   Marginal VFR   IFR   Intensive IFR   Very Intensive IFR
Visi :
Ceiling :
>= 8 km
>= 3000ft
5 to 8 km
1000 to 3000 ft
1500m to 5 km
500 to 1000 ft
800 to 1500m
200 to 500 ft
< 800m
< 200 ft
Symbols :   Thunderstorms  Fog  Heavy snow  Heavy precipitations  Wind > 20 kt






- Airport Elevation : 589 ft
- IATA code : HUF


KHUF - Terre Haute International Hulman Field

CURRENT METAR :
  • 230153Z AUTO 16004KT 10SM CLR 21/16 A3000 RMK AO2 SLP156 T02110161

EXPIRED METARs :
  • 230053Z 16006KT 10SM CLR 21/16 A3001 RMK AO2 SLP160 T02110156
  • 222353Z 16006KT 10SM CLR 23/16 A3001 RMK AO2 SLP159 T02280161 10283 20228 55001

TAF KHUF
Valid from the 23 at 00:00 until the 24 at 00:00 UTC


222334Z 2300/2324 18010KT P6SM FEW210
FM230600 18010KT P6SM FEW250 WS020/22040KT
FM231000 19009KT P6SM BKN120 WS020/22040KT
FM231300 20012G20KT P6SM VCSH BKN060
FM231700 23013G22KT P6SM VCSH BKN026
FM231900 32013G21KT 6SM -SHRA BKN020
FM232100 33014KT 6SM -SHRA OVC017
KZID FIR / North America



MET'MAP, your aeronautical weather chart ! - Copyright ORBIFLY December 2007 - Disclaimer

ORBIFLY MET'MAP TEAM :

Programming & Development : Alexandra Zaïnal
Concept & original design : Baudouin d'Aumeries
Assistance for programming : Marc-Olivier Méhu
Technical & hardware support : Manuel Goepfert

Contact : metmap@orbifly.com




SOURCES & CREDITS :

   NOAA       Earth
Advisory